createdAt,value
2022-09-16T00:00:29.751Z,13.40
2022-09-16T00:02:59.685Z,13.40
2022-09-16T00:05:43.809Z,13.40
2022-09-16T00:08:16.936Z,13.30
2022-09-16T00:10:52.843Z,13.30
2022-09-16T00:13:30.280Z,13.30
2022-09-16T00:16:00.571Z,13.30
2022-09-16T00:18:29.801Z,13.40
2022-09-16T00:20:57.945Z,13.40
2022-09-16T00:23:31.160Z,13.40
2022-09-16T00:26:01.840Z,13.40
2022-09-16T00:28:32.546Z,13.40
2022-09-16T00:31:12.925Z,13.40
2022-09-16T00:33:46.247Z,13.50
2022-09-16T00:36:23.338Z,13.50
2022-09-16T00:38:53.243Z,13.50
2022-09-16T00:41:26.868Z,13.40
2022-09-16T00:44:06.327Z,13.40
2022-09-16T00:46:41.650Z,13.40
2022-09-16T00:49:14.621Z,13.40
2022-09-16T00:51:58.438Z,13.30
2022-09-16T00:54:31.118Z,13.30
2022-09-16T00:57:14.287Z,13.30
2022-09-16T00:59:52.430Z,13.40
2022-09-16T01:02:33.314Z,13.40
2022-09-16T01:05:13.523Z,13.30
2022-09-16T01:07:59.212Z,13.30
2022-09-16T01:10:29.522Z,13.40
2022-09-16T01:13:05.787Z,13.30
2022-09-16T01:15:45.334Z,13.30
2022-09-16T01:18:23.525Z,13.30
2022-09-16T01:21:26.696Z,13.20
2022-09-16T01:24:39.900Z,13.20
2022-09-16T01:27:45.029Z,13.10
2022-09-16T01:30:37.536Z,13.20
2022-09-16T01:33:23.678Z,13.10
2022-09-16T01:36:35.856Z,13.10
2022-09-16T01:39:29.288Z,13.00
2022-09-16T01:42:17.451Z,13.00
2022-09-16T01:45:15.847Z,12.90
2022-09-16T01:47:54.331Z,13.00
2022-09-16T01:50:27.719Z,12.90
2022-09-16T01:53:03.118Z,13.10
2022-09-16T01:55:42.499Z,13.10
2022-09-16T01:58:23.148Z,13.10
2022-09-16T02:01:04.095Z,13.00
2022-09-16T02:03:43.993Z,13.00
2022-09-16T02:06:18.512Z,12.90
2022-09-16T02:08:57.201Z,12.90
2022-09-16T02:11:32.172Z,12.70
2022-09-16T02:14:05.362Z,12.70
2022-09-16T02:17:12.148Z,12.60
2022-09-16T02:19:47.924Z,12.70
2022-09-16T02:22:53.999Z,12.70
2022-09-16T02:25:24.621Z,12.60
2022-09-16T02:28:02.203Z,12.70
2022-09-16T02:30:46.960Z,12.80
2022-09-16T02:33:18.947Z,12.90
2022-09-16T02:35:55.425Z,12.90
2022-09-16T02:38:36.652Z,13.00
2022-09-16T02:41:23.874Z,13.00
2022-09-16T02:43:52.285Z,13.10
2022-09-16T02:47:18.525Z,13.00
2022-09-16T02:50:15.179Z,12.90
2022-09-16T02:52:58.267Z,12.80
2022-09-16T02:55:45.503Z,12.90
2022-09-16T02:58:13.983Z,12.80
2022-09-16T03:00:51.459Z,12.80
2022-09-16T03:04:10.363Z,12.90
2022-09-16T03:07:30.724Z,12.80
2022-09-16T03:10:00.835Z,12.90
2022-09-16T03:12:56.485Z,12.70
2022-09-16T03:15:55.765Z,12.70
2022-09-16T03:19:01.465Z,12.80
2022-09-16T03:21:49.211Z,12.80
2022-09-16T03:24:47.349Z,12.80
2022-09-16T03:27:21.124Z,12.70
2022-09-16T03:30:02.097Z,12.70
2022-09-16T03:32:35.229Z,12.60
2022-09-16T03:35:17.008Z,12.60
2022-09-16T03:37:55.700Z,12.60
2022-09-16T03:40:36.775Z,12.60
2022-09-16T03:43:13.863Z,12.70
2022-09-16T03:45:46.549Z,12.70
2022-09-16T03:48:26.119Z,12.60
2022-09-16T03:50:56.470Z,12.60
2022-09-16T03:53:37.069Z,12.60
2022-09-16T03:56:15.292Z,12.70
2022-09-16T03:58:55.452Z,12.60
2022-09-16T04:01:30.656Z,12.70
2022-09-16T04:04:07.302Z,12.60
2022-09-16T04:06:36.570Z,12.60
2022-09-16T04:09:13.970Z,12.60
2022-09-16T04:11:50.253Z,12.60
2022-09-16T04:14:26.287Z,12.50
2022-09-16T04:17:05.372Z,12.50
2022-09-16T04:19:40.480Z,12.60
2022-09-16T04:22:16.749Z,12.50
2022-09-16T04:24:53.991Z,12.50
2022-09-16T04:27:23.128Z,12.60
2022-09-16T04:29:52.882Z,12.50
2022-09-16T04:32:28.421Z,12.50
2022-09-16T04:35:01.425Z,12.50
2022-09-16T04:37:36.067Z,12.60
2022-09-16T04:40:15.902Z,12.50
2022-09-16T04:42:49.185Z,12.50
2022-09-16T04:45:20.946Z,12.40
2022-09-16T04:47:57.864Z,12.40
2022-09-16T04:50:37.058Z,12.40
2022-09-16T04:53:11.426Z,12.40
2022-09-16T04:55:41.033Z,12.40
2022-09-16T04:58:09.615Z,12.30
2022-09-16T05:00:42.309Z,12.40
2022-09-16T05:03:38.569Z,12.20
2022-09-16T05:06:17.153Z,12.30
2022-09-16T05:09:06.164Z,12.20
2022-09-16T05:11:49.285Z,12.10
2022-09-16T05:14:31.941Z,12.10
2022-09-16T05:17:27.608Z,12.20
2022-09-16T05:20:18.240Z,12.10
2022-09-16T05:22:51.259Z,12.10
2022-09-16T05:25:37.503Z,12.10
2022-09-16T05:28:10.622Z,12.20
2022-09-16T05:31:34.909Z,12.30
2022-09-16T05:34:14.909Z,12.20
2022-09-16T05:36:44.735Z,12.30
2022-09-16T05:39:24.788Z,12.20
2022-09-16T05:42:12.395Z,12.00
2022-09-16T05:45:08.971Z,12.10
2022-09-16T05:47:41.656Z,12.10
2022-09-16T05:50:13.541Z,12.20
2022-09-16T05:52:42.734Z,12.30
2022-09-16T05:55:13.044Z,12.20
2022-09-16T05:57:42.208Z,12.30
2022-09-16T06:00:47.376Z,12.20
2022-09-16T06:03:15.469Z,12.20
2022-09-16T06:05:45.986Z,12.10
2022-09-16T06:08:16.753Z,12.10
2022-09-16T06:10:49.000Z,12.10
2022-09-16T06:13:19.511Z,12.20
2022-09-16T06:15:51.699Z,12.10
2022-09-16T06:18:30.167Z,12.10
2022-09-16T06:21:08.812Z,12.10
2022-09-16T06:23:40.266Z,12.00
2022-09-16T06:26:11.064Z,12.00
2022-09-16T06:28:39.184Z,12.10
2022-09-16T06:31:09.354Z,12.20
2022-09-16T06:34:00.204Z,12.30
2022-09-16T06:36:44.734Z,12.40
2022-09-16T06:39:18.421Z,12.50
2022-09-16T06:42:04.885Z,12.60
2022-09-16T06:44:35.109Z,12.60
2022-09-16T06:47:09.620Z,12.70
2022-09-16T06:49:39.939Z,13.00
2022-09-16T06:52:13.772Z,12.90
2022-09-16T06:54:48.996Z,13.00
2022-09-16T06:57:41.151Z,13.00
2022-09-16T07:00:18.369Z,13.50
2022-09-16T07:02:46.683Z,13.70
2022-09-16T07:05:43.695Z,14.00
2022-09-16T07:08:13.245Z,13.70
2022-09-16T07:11:05.226Z,13.40
2022-09-16T07:13:55.392Z,13.40
2022-09-16T07:16:39.849Z,13.30
2022-09-16T07:19:22.029Z,13.50
2022-09-16T07:22:12.535Z,13.80
2022-09-16T07:24:43.136Z,13.60
2022-09-16T07:27:31.184Z,13.50
2022-09-16T07:30:00.576Z,13.40
2022-09-16T07:32:30.304Z,13.50
2022-09-16T07:35:11.744Z,13.80
2022-09-16T07:37:58.668Z,14.20
2022-09-16T07:40:40.925Z,14.20
2022-09-16T07:43:08.985Z,14.40
2022-09-16T07:45:39.195Z,14.50
2022-09-16T07:48:20.520Z,14.70
2022-09-16T07:51:02.390Z,14.80
2022-09-16T07:53:35.395Z,14.90
2022-09-16T07:56:07.979Z,14.90
2022-09-16T07:58:46.474Z,15.00
2022-09-16T08:01:25.505Z,15.10
2022-09-16T08:04:01.389Z,15.10
2022-09-16T08:06:41.247Z,15.40
2022-09-16T08:12:11.053Z,15.50
2022-09-16T08:14:39.636Z,15.50
2022-09-16T08:17:10.371Z,15.70
2022-09-16T08:19:40.317Z,15.70
2022-09-16T08:22:17.470Z,15.70
2022-09-16T08:25:01.872Z,15.90
2022-09-16T08:27:39.665Z,16.20
2022-09-16T08:30:09.308Z,16.50
2022-09-16T08:32:50.031Z,16.70
2022-09-16T08:35:20.342Z,16.30
2022-09-16T08:37:57.987Z,15.80
2022-09-16T08:40:28.811Z,15.30
2022-09-16T08:43:11.774Z,14.90
2022-09-16T08:45:52.841Z,14.60
2022-09-16T08:48:32.257Z,14.40
2022-09-16T08:51:24.408Z,14.40
2022-09-16T08:54:00.249Z,14.30
2022-09-16T08:56:39.423Z,14.20
2022-09-16T08:59:24.017Z,14.80
2022-09-16T09:01:59.074Z,15.30
2022-09-16T09:04:33.008Z,15.20
2022-09-16T09:07:25.294Z,15.60
2022-09-16T09:10:07.138Z,15.40
2022-09-16T09:12:43.754Z,15.10
2022-09-16T09:15:30.710Z,15.40
2022-09-16T09:18:16.176Z,15.50
2022-09-16T09:20:52.063Z,15.90
2022-09-16T09:23:49.457Z,15.90
2022-09-16T09:26:23.639Z,16.10
2022-09-16T09:29:15.474Z,16.00
2022-09-16T09:32:01.258Z,16.10
2022-09-16T09:34:44.365Z,16.00
2022-09-16T09:37:25.714Z,15.80
2022-09-16T09:40:04.655Z,15.20
2022-09-16T09:42:37.324Z,15.10
2022-09-16T09:45:13.820Z,15.20
2022-09-16T09:47:48.259Z,15.60
2022-09-16T09:50:24.153Z,16.10
2022-09-16T09:53:15.948Z,16.20
2022-09-16T09:55:46.853Z,16.30
2022-09-16T09:58:25.154Z,16.50
2022-09-16T10:00:56.204Z,16.70
2022-09-16T10:03:27.456Z,16.60
2022-09-16T10:05:55.736Z,16.80
2022-09-16T10:08:29.742Z,17.10
2022-09-16T10:10:59.782Z,17.50
2022-09-16T10:13:31.924Z,17.30
2022-09-16T10:16:10.811Z,17.10
2022-09-16T10:18:41.629Z,17.40
2022-09-16T10:21:18.004Z,17.40
2022-09-16T10:23:55.866Z,17.80
2022-09-16T10:26:27.749Z,17.60
2022-09-16T10:29:04.938Z,17.50
2022-09-16T10:31:38.791Z,17.20
2022-09-16T10:34:23.819Z,17.60
2022-09-16T10:37:03.899Z,17.50
2022-09-16T10:39:35.484Z,17.00
2022-09-16T10:42:04.326Z,16.50
2022-09-16T10:44:35.967Z,16.00
2022-09-16T10:47:20.163Z,15.60
2022-09-16T10:49:52.665Z,15.40
2022-09-16T10:52:25.444Z,15.30
2022-09-16T10:54:55.387Z,15.10
2022-09-16T10:57:29.083Z,15.00
2022-09-16T11:00:12.405Z,14.80
2022-09-16T11:03:23.865Z,14.70
2022-09-16T11:06:05.699Z,14.60
2022-09-16T11:08:46.873Z,14.40
2022-09-16T11:11:26.301Z,14.40
2022-09-16T11:14:04.925Z,14.30
2022-09-16T11:16:56.415Z,14.30
2022-09-16T11:19:31.517Z,14.20
2022-09-16T11:22:20.450Z,14.20
2022-09-16T11:25:18.922Z,14.20
2022-09-16T11:27:58.482Z,14.30
2022-09-16T11:30:32.872Z,14.70
2022-09-16T11:36:04.869Z,16.10
2022-09-16T11:38:49.012Z,15.90
2022-09-16T11:41:29.084Z,16.20
2022-09-16T11:44:16.002Z,16.60
2022-09-16T11:47:00.580Z,16.60
2022-09-16T11:49:56.498Z,16.40
2022-09-16T11:52:43.616Z,16.10
2022-09-16T11:55:27.941Z,16.10
2022-09-16T11:58:05.203Z,16.10
2022-09-16T12:00:42.810Z,16.20
2022-09-16T12:03:21.275Z,16.30
2022-09-16T12:05:57.113Z,16.60
2022-09-16T12:08:31.715Z,16.60
2022-09-16T12:11:09.009Z,16.90
2022-09-16T12:13:44.608Z,17.10
2022-09-16T12:16:17.638Z,17.00
2022-09-16T12:18:51.867Z,16.70
2022-09-16T12:21:26.428Z,16.80
2022-09-16T12:24:00.788Z,16.90
2022-09-16T12:26:36.347Z,17.40
2022-09-16T12:29:15.265Z,17.60
2022-09-16T12:31:52.498Z,17.70
2022-09-16T12:34:25.372Z,18.10
2022-09-16T12:37:00.933Z,18.20
2022-09-16T12:39:29.279Z,18.30
2022-09-16T12:42:27.961Z,18.70
2022-09-16T12:45:25.834Z,18.80
2022-09-16T12:48:10.828Z,18.70
2022-09-16T12:51:20.863Z,19.00
2022-09-16T12:54:16.846Z,19.10
2022-09-16T12:57:16.416Z,19.30
2022-09-16T13:00:01.931Z,19.20
2022-09-16T13:02:36.022Z,18.40
2022-09-16T13:05:15.366Z,17.90
2022-09-16T13:07:51.837Z,17.90
2022-09-16T13:10:53.825Z,17.80
2022-09-16T13:13:35.666Z,17.50
2022-09-16T13:16:06.966Z,16.90
2022-09-16T13:18:45.144Z,16.60
2022-09-16T13:21:40.974Z,16.40
2022-09-16T13:24:17.422Z,16.20
2022-09-16T13:26:57.867Z,16.30
2022-09-16T13:29:32.467Z,16.30
2022-09-16T13:32:03.683Z,16.40
2022-09-16T13:34:35.873Z,16.80
2022-09-16T13:37:04.011Z,17.20
2022-09-16T13:39:34.361Z,17.10
2022-09-16T13:42:18.139Z,17.00
2022-09-16T13:44:47.651Z,16.60
2022-09-16T13:47:18.358Z,16.70
2022-09-16T13:49:51.348Z,17.50
2022-09-16T13:52:22.996Z,18.00
2022-09-16T13:55:10.003Z,18.30
2022-09-16T13:57:49.407Z,18.60
2022-09-16T14:00:22.847Z,18.80
2022-09-16T14:03:23.509Z,19.00
2022-09-16T14:06:15.687Z,18.80
2022-09-16T14:08:52.202Z,18.80
2022-09-16T14:11:29.823Z,18.60
2022-09-16T14:14:05.915Z,18.00
2022-09-16T14:16:40.677Z,17.60
2022-09-16T14:19:20.043Z,17.50
2022-09-16T14:21:48.344Z,17.40
2022-09-16T14:24:18.924Z,17.60
2022-09-16T14:26:57.927Z,17.60
2022-09-16T14:29:27.284Z,17.50
2022-09-16T14:31:58.373Z,17.30
2022-09-16T14:34:30.098Z,17.10
2022-09-16T14:36:58.302Z,17.20
2022-09-16T14:39:28.116Z,17.40
2022-09-16T14:41:59.052Z,17.70
2022-09-16T14:44:31.985Z,17.90
2022-09-16T14:47:09.449Z,17.40
2022-09-16T14:49:41.214Z,16.90
2022-09-16T14:52:20.682Z,16.50
2022-09-16T14:54:48.909Z,16.30
2022-09-16T14:57:20.652Z,16.20
2022-09-16T14:59:48.823Z,16.40
2022-09-16T15:02:22.322Z,16.60
2022-09-16T15:04:58.148Z,16.50
2022-09-16T15:07:30.497Z,16.40
2022-09-16T15:10:02.916Z,16.40
2022-09-16T15:12:37.043Z,16.20
2022-09-16T15:15:25.561Z,15.90
2022-09-16T15:18:01.661Z,15.90
2022-09-16T15:20:52.361Z,15.70
2022-09-16T15:23:25.091Z,15.60
2022-09-16T15:25:59.821Z,15.50
2022-09-16T15:28:34.500Z,15.40
2022-09-16T15:31:08.245Z,15.50
2022-09-16T15:33:43.078Z,15.60
2022-09-16T15:36:34.342Z,15.60
2022-09-16T15:39:02.899Z,15.40
2022-09-16T15:41:40.701Z,15.40
2022-09-16T15:44:10.702Z,15.30
2022-09-16T15:46:47.544Z,15.20
2022-09-16T15:49:31.443Z,15.20
2022-09-16T15:52:08.194Z,15.10
2022-09-16T15:54:50.221Z,15.30
2022-09-16T15:57:28.805Z,15.30
2022-09-16T16:00:11.069Z,15.30
2022-09-16T16:02:43.687Z,15.40
2022-09-16T16:05:18.730Z,15.30
2022-09-16T16:08:03.190Z,15.40
2022-09-16T16:10:40.448Z,15.50
2022-09-16T16:13:08.976Z,15.50
2022-09-16T16:15:53.029Z,15.50
2022-09-16T16:18:34.993Z,15.50
2022-09-16T16:21:08.879Z,15.30
2022-09-16T16:23:38.611Z,15.30
2022-09-16T16:26:16.142Z,15.20
2022-09-16T16:28:51.446Z,15.20
2022-09-16T16:31:22.051Z,15.10
2022-09-16T16:33:52.485Z,15.10
2022-09-16T16:36:24.472Z,15.00
2022-09-16T16:38:52.910Z,14.90
2022-09-16T16:41:48.159Z,14.80
2022-09-16T16:44:23.809Z,14.80
2022-09-16T16:47:00.696Z,14.60
2022-09-16T16:49:35.412Z,14.60
2022-09-16T16:52:06.356Z,14.50
2022-09-16T16:54:43.479Z,14.50
2022-09-16T16:57:21.470Z,14.60
2022-09-16T16:59:52.046Z,14.60
2022-09-16T17:02:31.474Z,14.40
2022-09-16T17:05:06.570Z,13.80
2022-09-16T17:07:45.656Z,13.50
2022-09-16T17:10:14.935Z,13.40
2022-09-16T17:12:51.626Z,13.30
2022-09-16T17:15:29.973Z,13.30
2022-09-16T17:18:18.346Z,13.30
2022-09-16T17:20:46.974Z,13.20
2022-09-16T17:23:18.225Z,13.10
2022-09-16T17:25:57.669Z,13.10
2022-09-16T17:28:27.087Z,13.10
2022-09-16T17:30:57.600Z,13.20
2022-09-16T17:33:32.750Z,13.20
2022-09-16T17:36:10.603Z,13.20
2022-09-16T17:39:02.173Z,13.20
2022-09-16T17:41:49.308Z,13.10
2022-09-16T17:44:18.776Z,13.00
2022-09-16T17:46:52.676Z,12.90
2022-09-16T17:49:24.019Z,13.00
2022-09-16T17:51:55.489Z,12.90
2022-09-16T17:54:28.598Z,12.80
2022-09-16T17:56:58.076Z,12.80
2022-09-16T17:59:36.484Z,12.90
2022-09-16T18:02:06.200Z,12.80
2022-09-16T18:04:35.538Z,12.80
2022-09-16T18:07:04.507Z,12.80
2022-09-16T18:09:46.286Z,12.80
2022-09-16T18:12:27.978Z,12.90
2022-09-16T18:15:10.193Z,13.00
2022-09-16T18:18:06.630Z,13.00
2022-09-16T18:20:41.182Z,12.90
2022-09-16T18:23:09.958Z,12.80
2022-09-16T18:26:06.686Z,12.90
2022-09-16T18:29:09.524Z,12.80
2022-09-16T18:31:43.519Z,12.80
2022-09-16T18:34:27.995Z,12.70
2022-09-16T18:36:59.748Z,12.70
2022-09-16T18:39:33.855Z,12.60
2022-09-16T18:42:05.451Z,12.60
2022-09-16T18:44:43.560Z,12.50
2022-09-16T18:47:14.137Z,12.40
2022-09-16T18:49:50.168Z,12.30
2022-09-16T18:52:26.642Z,12.40
2022-09-16T18:57:56.450Z,12.60
2022-09-16T19:00:51.532Z,12.50
2022-09-16T19:03:32.470Z,12.60
2022-09-16T19:06:09.377Z,12.60
2022-09-16T19:08:39.372Z,12.50
2022-09-16T19:11:17.042Z,12.30
2022-09-16T19:14:05.447Z,12.30
2022-09-16T19:16:42.063Z,12.20
2022-09-16T19:19:14.261Z,12.10
2022-09-16T19:21:49.869Z,12.10
2022-09-16T19:24:38.538Z,12.10
2022-09-16T19:27:08.438Z,12.10
2022-09-16T19:30:20.205Z,12.10
2022-09-16T19:32:53.734Z,12.10
2022-09-16T19:35:33.116Z,12.20
2022-09-16T19:38:13.301Z,12.20
2022-09-16T19:41:07.303Z,12.20
2022-09-16T19:43:37.593Z,12.00
2022-09-16T19:46:19.802Z,12.00
2022-09-16T19:49:15.750Z,12.10
2022-09-16T19:52:00.676Z,12.10
2022-09-16T19:54:34.715Z,12.20
2022-09-16T19:57:12.467Z,12.10
2022-09-16T20:00:18.974Z,12.00
2022-09-16T20:02:54.821Z,12.00
2022-09-16T20:05:23.889Z,12.00
2022-09-16T20:07:56.167Z,11.90
2022-09-16T20:10:40.216Z,11.90
2022-09-16T20:13:16.778Z,12.00
2022-09-16T20:16:00.499Z,12.10
2022-09-16T20:18:41.353Z,12.20
2022-09-16T20:21:13.604Z,12.20
2022-09-16T20:23:42.820Z,12.20
2022-09-16T20:26:51.467Z,12.30
2022-09-16T20:29:20.206Z,12.30
2022-09-16T20:31:52.714Z,12.30
2022-09-16T20:34:24.508Z,12.30
2022-09-16T20:36:53.279Z,12.30
2022-09-16T20:39:36.885Z,12.30
2022-09-16T20:42:06.625Z,12.30
2022-09-16T20:44:37.987Z,12.30
2022-09-16T20:47:07.496Z,12.30
2022-09-16T20:49:47.731Z,12.30
2022-09-16T20:52:18.119Z,12.40
2022-09-16T20:54:46.456Z,12.40
2022-09-16T20:57:17.108Z,12.40
2022-09-16T20:59:51.051Z,12.40
2022-09-16T21:02:35.065Z,12.40
2022-09-16T21:05:09.780Z,12.30
2022-09-16T21:07:40.354Z,12.30
2022-09-16T21:10:11.887Z,12.30
2022-09-16T21:12:43.332Z,12.30
2022-09-16T21:15:13.432Z,12.30
2022-09-16T21:17:42.074Z,12.30
2022-09-16T21:20:18.690Z,12.30
2022-09-16T21:23:06.761Z,12.30
2022-09-16T21:25:51.272Z,12.30
2022-09-16T21:28:23.728Z,12.30
2022-09-16T21:31:02.138Z,12.30
2022-09-16T21:33:31.830Z,12.20
2022-09-16T21:36:23.969Z,12.20
2022-09-16T21:38:59.361Z,12.20
2022-09-16T21:41:30.025Z,12.10
2022-09-16T21:43:59.757Z,12.10
2022-09-16T21:46:43.366Z,12.10
2022-09-16T21:49:25.698Z,12.10
2022-09-16T21:51:59.117Z,12.20
2022-09-16T21:54:33.297Z,12.20
2022-09-16T21:57:14.631Z,12.30
2022-09-16T21:59:44.992Z,12.30
2022-09-16T22:02:29.224Z,12.30
2022-09-16T22:05:37.759Z,12.20
2022-09-16T22:08:07.505Z,12.20
2022-09-16T22:10:37.753Z,12.20
2022-09-16T22:13:06.038Z,12.20
2022-09-16T22:15:34.228Z,12.20
2022-09-16T22:18:13.823Z,12.20
2022-09-16T22:20:49.083Z,12.10
2022-09-16T22:23:23.538Z,12.10
2022-09-16T22:25:58.974Z,12.10
2022-09-16T22:28:27.364Z,12.00
2022-09-16T22:31:06.628Z,12.00
2022-09-16T22:33:48.272Z,12.00
2022-09-16T22:36:19.149Z,12.00
2022-09-16T22:39:01.976Z,11.90
2022-09-16T22:41:40.486Z,11.90
2022-09-16T22:44:08.674Z,11.80
2022-09-16T22:46:42.346Z,11.80
2022-09-16T22:49:12.152Z,11.80
2022-09-16T22:51:43.167Z,11.80
2022-09-16T22:54:15.978Z,11.80
2022-09-16T22:56:45.740Z,11.80
2022-09-16T22:59:18.272Z,11.80
2022-09-16T23:01:49.278Z,11.70
2022-09-16T23:04:34.716Z,11.70
2022-09-16T23:07:14.580Z,11.70
2022-09-16T23:09:50.456Z,11.70
2022-09-16T23:12:41.015Z,11.70
2022-09-16T23:15:18.677Z,11.80
2022-09-16T23:17:53.242Z,11.70
2022-09-16T23:20:31.135Z,11.80
2022-09-16T23:23:00.367Z,11.80
2022-09-16T23:25:37.541Z,11.80
2022-09-16T23:28:15.832Z,11.80
2022-09-16T23:30:50.395Z,11.80
2022-09-16T23:33:38.930Z,11.80
2022-09-16T23:36:21.302Z,11.80
2022-09-16T23:38:57.317Z,11.70
2022-09-16T23:41:32.174Z,11.70
2022-09-16T23:44:00.917Z,11.70
2022-09-16T23:46:34.557Z,11.60
2022-09-16T23:49:11.380Z,11.70
2022-09-16T23:51:50.578Z,11.70
2022-09-16T23:54:20.351Z,11.70
2022-09-16T23:56:51.977Z,11.70
2022-09-16T23:59:21.348Z,11.60
